sensor_id;sensor_type;location;lat;lon;timestamp;temperature;humidity
9215;DHT22;4642;51.364;6.788;2022-11-12T00:00:38;5.40;99.90
9215;DHT22;4642;51.364;6.788;2022-11-12T00:03:04;5.40;99.90
9215;DHT22;4642;51.364;6.788;2022-11-12T00:05:30;5.30;99.90
9215;DHT22;4642;51.364;6.788;2022-11-12T00:07:56;5.40;99.90
9215;DHT22;4642;51.364;6.788;2022-11-12T00:10:22;5.30;99.90
9215;DHT22;4642;51.364;6.788;2022-11-12T00:12:48;5.40;99.90
9215;DHT22;4642;51.364;6.788;2022-11-12T00:15:13;5.40;99.90
9215;DHT22;4642;51.364;6.788;2022-11-12T00:17:39;5.40;99.90
9215;DHT22;4642;51.364;6.788;2022-11-12T00:20:05;5.30;99.90
9215;DHT22;4642;51.364;6.788;2022-11-12T00:22:31;5.30;99.90
9215;DHT22;4642;51.364;6.788;2022-11-12T00:24:57;5.30;99.90
9215;DHT22;4642;51.364;6.788;2022-11-12T00:27:22;5.40;99.90
9215;DHT22;4642;51.364;6.788;2022-11-12T00:29:48;5.40;99.90
9215;DHT22;4642;51.364;6.788;2022-11-12T00:32:14;5.40;99.90
9215;DHT22;4642;51.364;6.788;2022-11-12T00:34:39;5.30;99.90
9215;DHT22;4642;51.364;6.788;2022-11-12T00:37:05;5.40;99.90
9215;DHT22;4642;51.364;6.788;2022-11-12T00:39:31;5.30;99.90
9215;DHT22;4642;51.364;6.788;2022-11-12T00:41:56;5.20;99.90
9215;DHT22;4642;51.364;6.788;2022-11-12T00:44:22;5.20;99.90
9215;DHT22;4642;51.364;6.788;2022-11-12T00:46:47;5.20;99.90
9215;DHT22;4642;51.364;6.788;2022-11-12T00:49:13;5.10;99.90
9215;DHT22;4642;51.364;6.788;2022-11-12T00:51:39;5.10;99.90
9215;DHT22;4642;51.364;6.788;2022-11-12T00:54:04;5.10;99.90
9215;DHT22;4642;51.364;6.788;2022-11-12T00:56:30;5.00;99.90
9215;DHT22;4642;51.364;6.788;2022-11-12T00:58:57;5.00;99.90
9215;DHT22;4642;51.364;6.788;2022-11-12T01:01:22;5.00;99.90
9215;DHT22;4642;51.364;6.788;2022-11-12T01:03:48;4.90;99.90
9215;DHT22;4642;51.364;6.788;2022-11-12T01:06:16;4.90;99.90
9215;DHT22;4642;51.364;6.788;2022-11-12T01:08:43;4.90;99.90
9215;DHT22;4642;51.364;6.788;2022-11-12T01:11:18;4.80;99.90
9215;DHT22;4642;51.364;6.788;2022-11-12T01:13:45;4.80;99.90
9215;DHT22;4642;51.364;6.788;2022-11-12T01:16:14;4.80;99.90
9215;DHT22;4642;51.364;6.788;2022-11-12T01:18:41;4.80;99.90
9215;DHT22;4642;51.364;6.788;2022-11-12T01:21:07;4.80;99.90
9215;DHT22;4642;51.364;6.788;2022-11-12T01:23:36;4.80;99.90
9215;DHT22;4642;51.364;6.788;2022-11-12T01:26:07;4.70;99.90
9215;DHT22;4642;51.364;6.788;2022-11-12T01:28:33;4.80;99.90
9215;DHT22;4642;51.364;6.788;2022-11-12T01:31:13;4.80;99.90
9215;DHT22;4642;51.364;6.788;2022-11-12T01:33:40;4.80;99.90
9215;DHT22;4642;51.364;6.788;2022-11-12T01:36:06;4.70;99.90
9215;DHT22;4642;51.364;6.788;2022-11-12T01:38:36;4.70;99.90
9215;DHT22;4642;51.364;6.788;2022-11-12T01:41:02;4.70;99.90
9215;DHT22;4642;51.364;6.788;2022-11-12T01:43:28;4.60;99.90
9215;DHT22;4642;51.364;6.788;2022-11-12T01:45:54;4.60;99.90
9215;DHT22;4642;51.364;6.788;2022-11-12T01:48:28;4.60;99.90
9215;DHT22;4642;51.364;6.788;2022-11-12T01:50:56;4.60;99.90
9215;DHT22;4642;51.364;6.788;2022-11-12T01:53:23;4.50;99.90
9215;DHT22;4642;51.364;6.788;2022-11-12T01:55:51;4.60;99.90
9215;DHT22;4642;51.364;6.788;2022-11-12T01:58:19;4.50;99.90
9215;DHT22;4642;51.364;6.788;2022-11-12T02:00:47;4.60;99.90
9215;DHT22;4642;51.364;6.788;2022-11-12T02:03:21;4.50;99.90
9215;DHT22;4642;51.364;6.788;2022-11-12T02:05:50;4.50;99.90
9215;DHT22;4642;51.364;6.788;2022-11-12T02:08:17;4.50;99.90
9215;DHT22;4642;51.364;6.788;2022-11-12T02:10:43;4.50;99.90
9215;DHT22;4642;51.364;6.788;2022-11-12T02:13:09;4.50;99.90
9215;DHT22;4642;51.364;6.788;2022-11-12T02:15:53;4.50;99.90
9215;DHT22;4642;51.364;6.788;2022-11-12T02:18:19;4.50;99.90
9215;DHT22;4642;51.364;6.788;2022-11-12T02:20:52;4.40;99.90
9215;DHT22;4642;51.364;6.788;2022-11-12T02:23:19;4.30;99.90
9215;DHT22;4642;51.364;6.788;2022-11-12T02:25:44;4.30;99.90
9215;DHT22;4642;51.364;6.788;2022-11-12T02:28:10;4.30;99.90
9215;DHT22;4642;51.364;6.788;2022-11-12T02:30:41;4.30;99.90
9215;DHT22;4642;51.364;6.788;2022-11-12T02:33:07;4.30;99.90
9215;DHT22;4642;51.364;6.788;2022-11-12T02:35:32;4.20;99.90
9215;DHT22;4642;51.364;6.788;2022-11-12T02:37:58;4.20;99.90
9215;DHT22;4642;51.364;6.788;2022-11-12T02:40:24;4.20;99.90
9215;DHT22;4642;51.364;6.788;2022-11-12T02:42:49;4.20;99.90
9215;DHT22;4642;51.364;6.788;2022-11-12T02:45:15;4.10;99.90
9215;DHT22;4642;51.364;6.788;2022-11-12T02:47:41;4.10;99.90
9215;DHT22;4642;51.364;6.788;2022-11-12T02:50:07;4.00;99.90
9215;DHT22;4642;51.364;6.788;2022-11-12T02:52:33;4.00;99.90
9215;DHT22;4642;51.364;6.788;2022-11-12T02:54:59;4.00;99.90
9215;DHT22;4642;51.364;6.788;2022-11-12T02:57:24;4.00;99.90
9215;DHT22;4642;51.364;6.788;2022-11-12T02:59:50;4.00;99.90
9215;DHT22;4642;51.364;6.788;2022-11-12T03:02:16;3.90;99.90
9215;DHT22;4642;51.364;6.788;2022-11-12T03:04:41;4.00;99.90
9215;DHT22;4642;51.364;6.788;2022-11-12T03:07:07;3.90;99.90
9215;DHT22;4642;51.364;6.788;2022-11-12T03:09:33;3.90;99.90
9215;DHT22;4642;51.364;6.788;2022-11-12T03:11:58;3.90;99.90
9215;DHT22;4642;51.364;6.788;2022-11-12T03:14:24;3.90;99.90
9215;DHT22;4642;51.364;6.788;2022-11-12T03:16:49;3.80;99.90
9215;DHT22;4642;51.364;6.788;2022-11-12T03:19:15;3.90;99.90
9215;DHT22;4642;51.364;6.788;2022-11-12T03:21:41;3.90;99.90
9215;DHT22;4642;51.364;6.788;2022-11-12T03:24:06;3.90;99.90
9215;DHT22;4642;51.364;6.788;2022-11-12T03:26:32;3.80;99.90
9215;DHT22;4642;51.364;6.788;2022-11-12T03:28:57;3.80;99.90
9215;DHT22;4642;51.364;6.788;2022-11-12T03:31:23;3.90;99.90
9215;DHT22;4642;51.364;6.788;2022-11-12T03:33:48;3.90;99.90
9215;DHT22;4642;51.364;6.788;2022-11-12T03:36:14;3.80;99.90
9215;DHT22;4642;51.364;6.788;2022-11-12T03:38:39;3.80;99.90
9215;DHT22;4642;51.364;6.788;2022-11-12T03:41:05;3.70;99.90
9215;DHT22;4642;51.364;6.788;2022-11-12T03:43:30;3.70;99.90
9215;DHT22;4642;51.364;6.788;2022-11-12T03:45:56;3.70;99.90
9215;DHT22;4642;51.364;6.788;2022-11-12T03:48:21;3.70;99.90
9215;DHT22;4642;51.364;6.788;2022-11-12T03:50:47;3.60;99.90
9215;DHT22;4642;51.364;6.788;2022-11-12T03:53:13;3.60;99.90
9215;DHT22;4642;51.364;6.788;2022-11-12T03:55:39;3.50;99.90
9215;DHT22;4642;51.364;6.788;2022-11-12T03:58:04;3.50;99.90
9215;DHT22;4642;51.364;6.788;2022-11-12T04:00:30;3.50;99.90
9215;DHT22;4642;51.364;6.788;2022-11-12T04:02:56;3.60;99.90
9215;DHT22;4642;51.364;6.788;2022-11-12T04:05:22;3.60;99.90
9215;DHT22;4642;51.364;6.788;2022-11-12T04:08:18;3.60;99.90
9215;DHT22;4642;51.364;6.788;2022-11-12T04:17:43;3.50;99.90
9215;DHT22;4642;51.364;6.788;2022-11-12T04:20:27;3.50;99.90
9215;DHT22;4642;51.364;6.788;2022-11-12T04:23:11;3.40;99.90
9215;DHT22;4642;51.364;6.788;2022-11-12T04:25:38;3.40;99.90
9215;DHT22;4642;51.364;6.788;2022-11-12T04:28:22;3.40;99.90
9215;DHT22;4642;51.364;6.788;2022-11-12T04:30:48;3.50;99.90
9215;DHT22;4642;51.364;6.788;2022-11-12T04:33:13;3.40;99.90
9215;DHT22;4642;51.364;6.788;2022-11-12T04:35:39;3.40;99.90
9215;DHT22;4642;51.364;6.788;2022-11-12T04:38:04;3.40;99.90
9215;DHT22;4642;51.364;6.788;2022-11-12T04:40:30;3.40;99.90
9215;DHT22;4642;51.364;6.788;2022-11-12T04:43:16;3.40;99.90
9215;DHT22;4642;51.364;6.788;2022-11-12T04:46:02;3.40;99.90
9215;DHT22;4642;51.364;6.788;2022-11-12T04:48:28;3.40;99.90
9215;DHT22;4642;51.364;6.788;2022-11-12T04:50:59;3.30;99.90
9215;DHT22;4642;51.364;6.788;2022-11-12T04:53:25;3.30;99.90
9215;DHT22;4642;51.364;6.788;2022-11-12T04:55:52;3.30;99.90
9215;DHT22;4642;51.364;6.788;2022-11-12T04:58:18;3.40;99.90
9215;DHT22;4642;51.364;6.788;2022-11-12T05:00:44;3.40;99.90
9215;DHT22;4642;51.364;6.788;2022-11-12T05:03:10;3.40;99.90
9215;DHT22;4642;51.364;6.788;2022-11-12T05:05:36;3.40;99.90
9215;DHT22;4642;51.364;6.788;2022-11-12T05:08:02;3.30;99.90
9215;DHT22;4642;51.364;6.788;2022-11-12T05:10:29;3.40;99.90
9215;DHT22;4642;51.364;6.788;2022-11-12T05:12:54;3.30;99.90
9215;DHT22;4642;51.364;6.788;2022-11-12T05:15:20;3.30;99.90
9215;DHT22;4642;51.364;6.788;2022-11-12T05:17:45;3.30;99.90
9215;DHT22;4642;51.364;6.788;2022-11-12T05:20:13;3.20;99.90
9215;DHT22;4642;51.364;6.788;2022-11-12T05:22:38;3.20;99.90
9215;DHT22;4642;51.364;6.788;2022-11-12T05:25:05;3.20;99.90
9215;DHT22;4642;51.364;6.788;2022-11-12T05:27:30;3.20;99.90
9215;DHT22;4642;51.364;6.788;2022-11-12T05:29:56;3.20;99.90
9215;DHT22;4642;51.364;6.788;2022-11-12T05:32:21;3.20;99.90
9215;DHT22;4642;51.364;6.788;2022-11-12T05:34:47;3.20;99.90
9215;DHT22;4642;51.364;6.788;2022-11-12T05:37:13;3.20;99.90
9215;DHT22;4642;51.364;6.788;2022-11-12T05:39:39;3.20;99.90
9215;DHT22;4642;51.364;6.788;2022-11-12T05:42:05;3.20;99.90
9215;DHT22;4642;51.364;6.788;2022-11-12T05:44:30;3.20;99.90
9215;DHT22;4642;51.364;6.788;2022-11-12T05:46:56;3.20;99.90
9215;DHT22;4642;51.364;6.788;2022-11-12T05:49:22;3.20;99.90
9215;DHT22;4642;51.364;6.788;2022-11-12T05:51:47;3.20;99.90
9215;DHT22;4642;51.364;6.788;2022-11-12T05:54:13;3.20;99.90
9215;DHT22;4642;51.364;6.788;2022-11-12T05:56:39;3.20;99.90
9215;DHT22;4642;51.364;6.788;2022-11-12T05:59:06;3.10;99.90
9215;DHT22;4642;51.364;6.788;2022-11-12T06:01:33;3.10;99.90
9215;DHT22;4642;51.364;6.788;2022-11-12T06:03:59;3.00;99.90
9215;DHT22;4642;51.364;6.788;2022-11-12T06:06:24;3.00;99.90
9215;DHT22;4642;51.364;6.788;2022-11-12T06:08:50;3.00;99.90
9215;DHT22;4642;51.364;6.788;2022-11-12T06:11:16;3.00;99.90
9215;DHT22;4642;51.364;6.788;2022-11-12T06:13:41;2.90;99.90
9215;DHT22;4642;51.364;6.788;2022-11-12T06:16:07;2.90;99.90
9215;DHT22;4642;51.364;6.788;2022-11-12T06:18:33;2.90;99.90
9215;DHT22;4642;51.364;6.788;2022-11-12T06:21:04;2.80;99.90
9215;DHT22;4642;51.364;6.788;2022-11-12T06:23:46;2.90;99.90
9215;DHT22;4642;51.364;6.788;2022-11-12T06:26:12;2.90;99.90
9215;DHT22;4642;51.364;6.788;2022-11-12T06:28:38;2.90;99.90
9215;DHT22;4642;51.364;6.788;2022-11-12T06:31:03;2.90;99.90
9215;DHT22;4642;51.364;6.788;2022-11-12T06:33:29;3.10;99.90
9215;DHT22;4642;51.364;6.788;2022-11-12T06:35:56;2.90;99.90
9215;DHT22;4642;51.364;6.788;2022-11-12T06:38:22;3.00;99.90
9215;DHT22;4642;51.364;6.788;2022-11-12T06:40:48;3.00;99.90
9215;DHT22;4642;51.364;6.788;2022-11-12T06:43:14;3.00;99.90
9215;DHT22;4642;51.364;6.788;2022-11-12T06:45:39;3.00;99.90
9215;DHT22;4642;51.364;6.788;2022-11-12T06:48:05;2.90;99.90
9215;DHT22;4642;51.364;6.788;2022-11-12T06:50:30;3.00;99.90
9215;DHT22;4642;51.364;6.788;2022-11-12T06:52:57;3.00;99.90
9215;DHT22;4642;51.364;6.788;2022-11-12T06:55:23;3.00;99.90
9215;DHT22;4642;51.364;6.788;2022-11-12T06:57:52;3.00;99.90
9215;DHT22;4642;51.364;6.788;2022-11-12T07:00:18;3.00;99.90
9215;DHT22;4642;51.364;6.788;2022-11-12T07:02:44;3.00;99.90
9215;DHT22;4642;51.364;6.788;2022-11-12T07:05:09;3.00;99.90
9215;DHT22;4642;51.364;6.788;2022-11-12T07:07:35;3.00;99.90
9215;DHT22;4642;51.364;6.788;2022-11-12T07:10:00;3.00;99.90
9215;DHT22;4642;51.364;6.788;2022-11-12T07:12:26;2.90;99.90
9215;DHT22;4642;51.364;6.788;2022-11-12T07:14:51;2.90;99.90
9215;DHT22;4642;51.364;6.788;2022-11-12T07:17:18;2.90;99.90
9215;DHT22;4642;51.364;6.788;2022-11-12T07:19:43;2.90;99.90
9215;DHT22;4642;51.364;6.788;2022-11-12T07:22:09;2.90;99.90
9215;DHT22;4642;51.364;6.788;2022-11-12T07:24:34;2.80;99.90
9215;DHT22;4642;51.364;6.788;2022-11-12T07:27:00;2.80;99.90
9215;DHT22;4642;51.364;6.788;2022-11-12T07:29:26;2.80;99.90
9215;DHT22;4642;51.364;6.788;2022-11-12T07:31:51;2.80;99.90
9215;DHT22;4642;51.364;6.788;2022-11-12T07:34:17;2.80;99.90
9215;DHT22;4642;51.364;6.788;2022-11-12T07:36:42;2.80;99.90
9215;DHT22;4642;51.364;6.788;2022-11-12T07:39:08;2.90;99.90
9215;DHT22;4642;51.364;6.788;2022-11-12T07:41:33;2.90;99.90
9215;DHT22;4642;51.364;6.788;2022-11-12T07:43:58;2.90;99.90
9215;DHT22;4642;51.364;6.788;2022-11-12T07:46:25;3.00;99.90
9215;DHT22;4642;51.364;6.788;2022-11-12T07:48:51;3.00;99.90
9215;DHT22;4642;51.364;6.788;2022-11-12T07:51:25;3.00;99.90
9215;DHT22;4642;51.364;6.788;2022-11-12T07:53:53;3.10;99.90
9215;DHT22;4642;51.364;6.788;2022-11-12T07:56:21;3.10;99.90
9215;DHT22;4642;51.364;6.788;2022-11-12T07:58:47;3.20;99.90
9215;DHT22;4642;51.364;6.788;2022-11-12T08:01:37;3.20;99.90
9215;DHT22;4642;51.364;6.788;2022-11-12T08:04:05;3.30;99.90
9215;DHT22;4642;51.364;6.788;2022-11-12T08:06:32;3.40;99.90
9215;DHT22;4642;51.364;6.788;2022-11-12T08:09:00;3.40;99.90
9215;DHT22;4642;51.364;6.788;2022-11-12T08:11:26;3.50;99.90
9215;DHT22;4642;51.364;6.788;2022-11-12T08:13:52;3.50;99.90
9215;DHT22;4642;51.364;6.788;2022-11-12T08:16:18;3.60;99.90
9215;DHT22;4642;51.364;6.788;2022-11-12T08:18:44;3.60;99.90
9215;DHT22;4642;51.364;6.788;2022-11-12T08:21:12;3.60;99.90
9215;DHT22;4642;51.364;6.788;2022-11-12T08:23:39;3.70;99.90
9215;DHT22;4642;51.364;6.788;2022-11-12T08:26:07;3.70;99.90
9215;DHT22;4642;51.364;6.788;2022-11-12T08:28:34;3.90;99.90
9215;DHT22;4642;51.364;6.788;2022-11-12T08:31:05;3.90;99.90
9215;DHT22;4642;51.364;6.788;2022-11-12T08:33:32;4.00;99.90
9215;DHT22;4642;51.364;6.788;2022-11-12T08:35:57;4.10;99.90
9215;DHT22;4642;51.364;6.788;2022-11-12T08:38:23;4.20;99.90
9215;DHT22;4642;51.364;6.788;2022-11-12T08:40:49;4.40;99.90
9215;DHT22;4642;51.364;6.788;2022-11-12T08:43:14;4.50;99.90
9215;DHT22;4642;51.364;6.788;2022-11-12T08:45:40;4.60;99.90
9215;DHT22;4642;51.364;6.788;2022-11-12T08:48:11;4.80;99.90
9215;DHT22;4642;51.364;6.788;2022-11-12T08:50:39;5.00;99.90
9215;DHT22;4642;51.364;6.788;2022-11-12T08:53:07;5.20;99.90
9215;DHT22;4642;51.364;6.788;2022-11-12T08:55:33;5.40;99.90
9215;DHT22;4642;51.364;6.788;2022-11-12T08:57:59;5.60;99.90
9215;DHT22;4642;51.364;6.788;2022-11-12T09:00:44;5.70;99.90
9215;DHT22;4642;51.364;6.788;2022-11-12T09:03:14;5.90;99.90
9215;DHT22;4642;51.364;6.788;2022-11-12T09:05:41;6.10;99.90
9215;DHT22;4642;51.364;6.788;2022-11-12T09:08:09;6.20;99.90
9215;DHT22;4642;51.364;6.788;2022-11-12T09:10:35;6.40;99.90
9215;DHT22;4642;51.364;6.788;2022-11-12T09:13:00;6.50;99.90
9215;DHT22;4642;51.364;6.788;2022-11-12T09:15:27;6.70;99.90
9215;DHT22;4642;51.364;6.788;2022-11-12T09:17:58;6.90;99.90
9215;DHT22;4642;51.364;6.788;2022-11-12T09:20:24;7.00;99.90
9215;DHT22;4642;51.364;6.788;2022-11-12T09:22:51;7.10;99.90
9215;DHT22;4642;51.364;6.788;2022-11-12T09:25:17;7.30;99.90
9215;DHT22;4642;51.364;6.788;2022-11-12T09:27:42;7.40;99.90
9215;DHT22;4642;51.364;6.788;2022-11-12T09:30:08;7.50;99.90
9215;DHT22;4642;51.364;6.788;2022-11-12T09:32:34;7.70;99.90
9215;DHT22;4642;51.364;6.788;2022-11-12T09:34:59;7.80;99.90
9215;DHT22;4642;51.364;6.788;2022-11-12T09:37:25;7.90;99.90
9215;DHT22;4642;51.364;6.788;2022-11-12T09:39:51;8.10;99.90
9215;DHT22;4642;51.364;6.788;2022-11-12T09:42:18;8.20;99.90
9215;DHT22;4642;51.364;6.788;2022-11-12T09:44:53;8.30;99.90
9215;DHT22;4642;51.364;6.788;2022-11-12T09:47:30;8.50;99.90
9215;DHT22;4642;51.364;6.788;2022-11-12T09:50:17;8.60;99.90
9215;DHT22;4642;51.364;6.788;2022-11-12T09:52:46;8.70;99.90
9215;DHT22;4642;51.364;6.788;2022-11-12T09:57:56;9.00;99.90
9215;DHT22;4642;51.364;6.788;2022-11-12T10:00:22;9.10;99.90
9215;DHT22;4642;51.364;6.788;2022-11-12T10:03:03;9.20;99.90
9215;DHT22;4642;51.364;6.788;2022-11-12T10:05:54;9.30;99.90
9215;DHT22;4642;51.364;6.788;2022-11-12T10:09:00;9.40;99.90
9215;DHT22;4642;51.364;6.788;2022-11-12T10:11:49;9.50;99.90
9215;DHT22;4642;51.364;6.788;2022-11-12T10:20:22;9.90;99.90
9215;DHT22;4642;51.364;6.788;2022-11-12T10:23:23;10.10;99.90
9215;DHT22;4642;51.364;6.788;2022-11-12T10:25:52;10.20;99.90
9215;DHT22;4642;51.364;6.788;2022-11-12T10:28:32;10.30;99.90
9215;DHT22;4642;51.364;6.788;2022-11-12T10:31:11;10.30;99.90
9215;DHT22;4642;51.364;6.788;2022-11-12T10:33:37;10.50;99.90
9215;DHT22;4642;51.364;6.788;2022-11-12T10:38:52;10.70;40.70
9215;DHT22;4642;51.364;6.788;2022-11-12T10:41:24;10.70;1.00
9215;DHT22;4642;51.364;6.788;2022-11-12T10:44:01;10.80;10.10
9215;DHT22;4642;51.364;6.788;2022-11-12T10:46:34;10.90;26.30
9215;DHT22;4642;51.364;6.788;2022-11-12T10:49:05;11.00;44.80
9215;DHT22;4642;51.364;6.788;2022-11-12T10:51:34;11.10;35.20
9215;DHT22;4642;51.364;6.788;2022-11-12T10:56:53;11.20;1.00
9215;DHT22;4642;51.364;6.788;2022-11-12T10:59:23;11.30;1.00
9215;DHT22;4642;51.364;6.788;2022-11-12T11:01:57;11.40;1.00
9215;DHT22;4642;51.364;6.788;2022-11-12T11:04:35;11.50;1.00
9215;DHT22;4642;51.364;6.788;2022-11-12T11:12:28;11.60;1.00
9215;DHT22;4642;51.364;6.788;2022-11-12T11:17:40;11.80;1.00
9215;DHT22;4642;51.364;6.788;2022-11-12T11:20:17;11.90;1.00
9215;DHT22;4642;51.364;6.788;2022-11-12T11:22:51;11.90;1.00
9215;DHT22;4642;51.364;6.788;2022-11-12T11:25:26;11.90;1.00
9215;DHT22;4642;51.364;6.788;2022-11-12T11:30:54;12.10;1.00
9215;DHT22;4642;51.364;6.788;2022-11-12T11:33:30;12.20;1.00
9215;DHT22;4642;51.364;6.788;2022-11-12T11:41:26;12.30;1.00
9215;DHT22;4642;51.364;6.788;2022-11-12T11:46:48;12.50;1.00
9215;DHT22;4642;51.364;6.788;2022-11-12T11:52:32;12.70;1.00
9215;DHT22;4642;51.364;6.788;2022-11-12T12:00:22;13.00;1.00
9215;DHT22;4642;51.364;6.788;2022-11-12T12:05:57;13.10;1.00
9215;DHT22;4642;51.364;6.788;2022-11-12T12:14:48;13.40;1.00
9215;DHT22;4642;51.364;6.788;2022-11-12T12:20:36;13.50;1.00
9215;DHT22;4642;51.364;6.788;2022-11-12T12:23:03;13.60;1.00
9215;DHT22;4642;51.364;6.788;2022-11-12T12:25:37;13.70;1.00
9215;DHT22;4642;51.364;6.788;2022-11-12T12:31:17;13.80;1.00
9215;DHT22;4642;51.364;6.788;2022-11-12T12:33:50;13.80;1.00
9215;DHT22;4642;51.364;6.788;2022-11-12T12:36:22;13.80;1.00
9215;DHT22;4642;51.364;6.788;2022-11-12T12:41:56;13.90;99.90
9215;DHT22;4642;51.364;6.788;2022-11-12T12:44:23;14.00;99.90
9215;DHT22;4642;51.364;6.788;2022-11-12T12:47:12;14.00;99.90
9215;DHT22;4642;51.364;6.788;2022-11-12T12:49:39;14.00;99.90
9215;DHT22;4642;51.364;6.788;2022-11-12T12:52:05;14.00;99.90
9215;DHT22;4642;51.364;6.788;2022-11-12T12:57:02;14.00;99.90
9215;DHT22;4642;51.364;6.788;2022-11-12T12:59:28;14.00;99.90
9215;DHT22;4642;51.364;6.788;2022-11-12T13:01:57;14.10;99.90
9215;DHT22;4642;51.364;6.788;2022-11-12T13:04:52;14.10;99.90
9215;DHT22;4642;51.364;6.788;2022-11-12T13:07:37;14.10;99.90
9215;DHT22;4642;51.364;6.788;2022-11-12T13:13:22;14.20;99.90
9215;DHT22;4642;51.364;6.788;2022-11-12T13:15:52;14.20;99.90
9215;DHT22;4642;51.364;6.788;2022-11-12T13:21:16;14.30;99.90
9215;DHT22;4642;51.364;6.788;2022-11-12T13:29:38;14.40;99.90
9215;DHT22;4642;51.364;6.788;2022-11-12T13:33:16;14.40;99.90
9215;DHT22;4642;51.364;6.788;2022-11-12T13:37:48;14.50;99.90
9215;DHT22;4642;51.364;6.788;2022-11-12T13:42:46;14.50;99.90
9215;DHT22;4642;51.364;6.788;2022-11-12T13:45:12;14.50;99.90
9215;DHT22;4642;51.364;6.788;2022-11-12T13:47:38;14.50;99.90
9215;DHT22;4642;51.364;6.788;2022-11-12T13:50:06;14.50;99.90
9215;DHT22;4642;51.364;6.788;2022-11-12T13:52:33;14.40;99.90
9215;DHT22;4642;51.364;6.788;2022-11-12T13:55:12;14.40;99.90
9215;DHT22;4642;51.364;6.788;2022-11-12T13:57:39;14.40;99.90
9215;DHT22;4642;51.364;6.788;2022-11-12T14:02:48;14.40;99.90
9215;DHT22;4642;51.364;6.788;2022-11-12T14:05:24;14.30;99.90
9215;DHT22;4642;51.364;6.788;2022-11-12T14:11:05;14.30;99.90
9215;DHT22;4642;51.364;6.788;2022-11-12T14:13:55;14.30;99.90
9215;DHT22;4642;51.364;6.788;2022-11-12T14:22:20;14.20;99.90
9215;DHT22;4642;51.364;6.788;2022-11-12T14:24:49;14.10;99.90
9215;DHT22;4642;51.364;6.788;2022-11-12T14:27:32;14.10;99.90
9215;DHT22;4642;51.364;6.788;2022-11-12T14:32:37;14.00;1.00
9215;DHT22;4642;51.364;6.788;2022-11-12T14:37:58;13.90;1.00
9215;DHT22;4642;51.364;6.788;2022-11-12T14:40:29;13.80;1.00
9215;DHT22;4642;51.364;6.788;2022-11-12T14:42:55;13.80;1.00
9215;DHT22;4642;51.364;6.788;2022-11-12T14:45:22;13.70;1.00
9215;DHT22;4642;51.364;6.788;2022-11-12T14:47:49;13.70;1.00
9215;DHT22;4642;51.364;6.788;2022-11-12T14:50:23;13.60;1.00
9215;DHT22;4642;51.364;6.788;2022-11-12T14:52:56;13.50;1.00
9215;DHT22;4642;51.364;6.788;2022-11-12T14:55:31;13.40;1.00
9215;DHT22;4642;51.364;6.788;2022-11-12T14:57:58;13.30;1.00
9215;DHT22;4642;51.364;6.788;2022-11-12T15:02:57;13.20;1.00
9215;DHT22;4642;51.364;6.788;2022-11-12T15:05:24;13.10;1.00
9215;DHT22;4642;51.364;6.788;2022-11-12T15:07:52;13.00;1.00
9215;DHT22;4642;51.364;6.788;2022-11-12T15:13:11;12.90;11.60
9215;DHT22;4642;51.364;6.788;2022-11-12T15:15:52;12.90;24.40
9215;DHT22;4642;51.364;6.788;2022-11-12T15:18:21;12.80;79.80
9215;DHT22;4642;51.364;6.788;2022-11-12T15:23:36;12.70;99.90
9215;DHT22;4642;51.364;6.788;2022-11-12T15:26:13;12.60;99.90
9215;DHT22;4642;51.364;6.788;2022-11-12T15:28:40;12.50;99.90
9215;DHT22;4642;51.364;6.788;2022-11-12T15:33:41;12.40;99.90
9215;DHT22;4642;51.364;6.788;2022-11-12T15:36:15;12.30;99.90
9215;DHT22;4642;51.364;6.788;2022-11-12T15:38:46;12.20;99.90
9215;DHT22;4642;51.364;6.788;2022-11-12T15:41:25;12.10;99.90
9215;DHT22;4642;51.364;6.788;2022-11-12T15:43:51;12.00;99.90
9215;DHT22;4642;51.364;6.788;2022-11-12T15:46:17;12.00;99.90
9215;DHT22;4642;51.364;6.788;2022-11-12T15:48:42;11.90;99.90
9215;DHT22;4642;51.364;6.788;2022-11-12T15:51:09;11.80;99.90
9215;DHT22;4642;51.364;6.788;2022-11-12T15:53:35;11.80;99.90
9215;DHT22;4642;51.364;6.788;2022-11-12T15:56:01;11.70;99.90
9215;DHT22;4642;51.364;6.788;2022-11-12T15:58:32;11.60;99.90
9215;DHT22;4642;51.364;6.788;2022-11-12T16:00:59;11.50;99.90
9215;DHT22;4642;51.364;6.788;2022-11-12T16:03:24;11.40;99.90
9215;DHT22;4642;51.364;6.788;2022-11-12T16:05:50;11.40;99.90
9215;DHT22;4642;51.364;6.788;2022-11-12T16:08:16;11.30;99.90
9215;DHT22;4642;51.364;6.788;2022-11-12T16:10:43;11.20;99.90
9215;DHT22;4642;51.364;6.788;2022-11-12T16:13:25;11.10;99.90
9215;DHT22;4642;51.364;6.788;2022-11-12T16:15:51;11.00;99.90
9215;DHT22;4642;51.364;6.788;2022-11-12T16:18:17;10.90;99.90
9215;DHT22;4642;51.364;6.788;2022-11-12T16:20:43;10.90;99.90
9215;DHT22;4642;51.364;6.788;2022-11-12T16:23:08;10.80;99.90
9215;DHT22;4642;51.364;6.788;2022-11-12T16:25:36;10.80;99.90
9215;DHT22;4642;51.364;6.788;2022-11-12T16:28:03;10.70;99.90
9215;DHT22;4642;51.364;6.788;2022-11-12T16:30:31;10.70;99.90
9215;DHT22;4642;51.364;6.788;2022-11-12T16:32:58;10.60;99.90
9215;DHT22;4642;51.364;6.788;2022-11-12T16:35:30;10.50;99.90
9215;DHT22;4642;51.364;6.788;2022-11-12T16:37:57;10.50;99.90
9215;DHT22;4642;51.364;6.788;2022-11-12T16:40:25;10.40;99.90
9215;DHT22;4642;51.364;6.788;2022-11-12T16:42:51;10.40;99.90
9215;DHT22;4642;51.364;6.788;2022-11-12T16:45:19;10.40;99.90
9215;DHT22;4642;51.364;6.788;2022-11-12T16:47:50;10.30;99.90
9215;DHT22;4642;51.364;6.788;2022-11-12T16:50:18;10.20;99.90
9215;DHT22;4642;51.364;6.788;2022-11-12T16:52:46;10.10;99.90
9215;DHT22;4642;51.364;6.788;2022-11-12T16:55:12;10.10;99.90
9215;DHT22;4642;51.364;6.788;2022-11-12T16:57:38;9.90;99.90
9215;DHT22;4642;51.364;6.788;2022-11-12T17:00:06;9.90;99.90
9215;DHT22;4642;51.364;6.788;2022-11-12T17:02:32;9.90;99.90
9215;DHT22;4642;51.364;6.788;2022-11-12T17:05:02;9.80;99.90
9215;DHT22;4642;51.364;6.788;2022-11-12T17:07:28;9.70;99.90
9215;DHT22;4642;51.364;6.788;2022-11-12T17:09:53;9.70;99.90
9215;DHT22;4642;51.364;6.788;2022-11-12T17:12:19;9.60;99.90
9215;DHT22;4642;51.364;6.788;2022-11-12T17:14:45;9.60;99.90
9215;DHT22;4642;51.364;6.788;2022-11-12T17:17:10;9.50;99.90
9215;DHT22;4642;51.364;6.788;2022-11-12T17:19:36;9.50;99.90
9215;DHT22;4642;51.364;6.788;2022-11-12T17:22:01;9.50;99.90
9215;DHT22;4642;51.364;6.788;2022-11-12T17:24:27;9.40;99.90
9215;DHT22;4642;51.364;6.788;2022-11-12T17:26:53;9.40;99.90
9215;DHT22;4642;51.364;6.788;2022-11-12T17:29:18;9.30;99.90
9215;DHT22;4642;51.364;6.788;2022-11-12T17:31:48;9.30;99.90
9215;DHT22;4642;51.364;6.788;2022-11-12T17:34:13;9.30;99.90
9215;DHT22;4642;51.364;6.788;2022-11-12T17:36:39;9.20;99.90
9215;DHT22;4642;51.364;6.788;2022-11-12T17:39:04;9.20;99.90
9215;DHT22;4642;51.364;6.788;2022-11-12T17:41:30;9.20;99.90
9215;DHT22;4642;51.364;6.788;2022-11-12T17:43:57;9.10;99.90
9215;DHT22;4642;51.364;6.788;2022-11-12T17:46:23;9.10;99.90
9215;DHT22;4642;51.364;6.788;2022-11-12T17:48:49;9.00;99.90
9215;DHT22;4642;51.364;6.788;2022-11-12T17:51:20;9.00;99.90
9215;DHT22;4642;51.364;6.788;2022-11-12T17:53:46;9.00;99.90
9215;DHT22;4642;51.364;6.788;2022-11-12T17:56:15;8.90;99.90
9215;DHT22;4642;51.364;6.788;2022-11-12T17:58:41;8.90;99.90
9215;DHT22;4642;51.364;6.788;2022-11-12T18:01:07;8.80;99.90
9215;DHT22;4642;51.364;6.788;2022-11-12T18:03:36;8.70;99.90
9215;DHT22;4642;51.364;6.788;2022-11-12T18:06:02;8.70;99.90
9215;DHT22;4642;51.364;6.788;2022-11-12T18:08:27;8.70;99.90
9215;DHT22;4642;51.364;6.788;2022-11-12T18:10:53;8.60;99.90
9215;DHT22;4642;51.364;6.788;2022-11-12T18:13:19;8.60;99.90
9215;DHT22;4642;51.364;6.788;2022-11-12T18:15:44;8.50;99.90
9215;DHT22;4642;51.364;6.788;2022-11-12T18:18:10;8.50;99.90